Yellowfin — WCW2778 — position and weather

sailwx.info

Track history (hours):
 
Tides and Currents Weather Stations Pressure Air Temp Water Temp Dewpoint Dewpoint Depression Visibility Wind Speed Wind Dir Waves Ship Positions

Oceanographic research ship Yellowfin (USA)

Detailed information on ship capabilities available from University of Delaware's Ocean Information Center.

Owner: CALIFORNIA STATE UNIVERSITY, TERMINAL ISLAND, CA. More information available from US FCC via Universal Licensing System and Coast Guard Vessel Documentation Center.

Last reported at 2017-Oct-19 03:12 UTC. Time now 2017-Oct-19 16:33 UTC.
Position N 33°34' W 118°24'.

; draft 2.5 m.

Type: Other ship. MMSI: 367000160.

Date/timePositionNaut miles runAvg speedWind from/ knotsBaromVisibWave heightAir tempDewpointWater temp
2017-Oct-19 03:12N 33°34' W 118°24'0 1.3
2017-Oct-19 02:57N 33°34' W 118°25'1 1.1
2017-Oct-19 02:29N 33°34' W 118°25'1 1.5
2017-Oct-19 02:00N 33°35' W 118°26'1 1.7
2017-Oct-19 01:30N 33°35' W 118°27'1 2.5
2017-Oct-19 01:00N 33°36' W 118°27'5 8.9
2017-Oct-19 00:30N 33°39' W 118°22'4 8.8
2017-Oct-19 00:00N 33°41' W 118°18'3 6.5
2017-Oct-18 23:30N 33°44' W 118°16'  
2017-Oct-15 18:49N 33°44' W 118°16'1 4.6
2017-Oct-15 18:30N 33°44' W 118°14'1 1.9
2017-Oct-15 18:01N 33°44' W 118°13'2 4.2
2017-Oct-15 17:31N 33°45' W 118°11'4 7.0
2017-Oct-15 16:55N 33°41' W 118°12'1 2.8
2017-Oct-15 16:30N 33°40' W 118°13'3 5.0
2017-Oct-15 15:57N 33°40' W 118°17'2 4.2
2017-Oct-15 15:27N 33°42' W 118°16'2 3.8
2017-Oct-15 14:58N 33°43' W 118°16'0 0.0
2017-Oct-13 22:20N 33°44' W 118°16'2 5.2
2017-Oct-13 21:59N 33°44' W 118°14'0 0.6
2017-Oct-13 21:30N 33°44' W 118°14'1 1.2
2017-Oct-13 21:00N 33°43' W 118°14'2 0.1
2017-Oct-12 18:37N 33°44' W 118°16'0 0.0
2017-Oct-12 18:29N 33°44' W 118°16'0 0.0
2017-Oct-12 18:00N 33°44' W 118°16'0 0.1
2017-Oct-12 17:30N 33°44' W 118°16'0 0.0
2017-Oct-12 17:00N 33°44' W 118°16'1 1.8
2017-Oct-12 16:29N 33°43' W 118°16'2 3.7
2017-Oct-12 15:59N 33°45' W 118°16'1 1.7
2017-Oct-12 15:24N 33°46' W 118°16'0 0.1
2017-Oct-12 14:54N 33°46' W 118°16'3 0.2
2017-Oct-11 22:28N 33°43' W 118°15'4 8.8
2017-Oct-11 21:59N 33°39' W 118°17'5 9.0
2017-Oct-11 21:28N 33°35' W 118°20'3 7.5
2017-Oct-11 21:00N 33°32' W 118°23'0 0.7
2017-Oct-11 20:30N 33°32' W 118°23'0 0.7
2017-Oct-11 19:59N 33°33' W 118°23'0 0.8
2017-Oct-11 19:30N 33°33' W 118°24'0 0.5
2017-Oct-11 19:00N 33°33' W 118°23'0 0.3
2017-Oct-11 18:30N 33°33' W 118°24'0 0.6
2017-Oct-11 18:00N 33°33' W 118°24'1 1.2
2017-Oct-11 17:14N 33°33' W 118°23'0 0.8
2017-Oct-11 16:40N 33°33' W 118°23'12 0.7
2017-Oct-10 23:14N 33°43' W 118°16'2 7.9
2017-Oct-10 23:01N 33°42' W 118°16'5 9.3
2017-Oct-10 22:30N 33°38' W 118°19'5 9.0
2017-Oct-10 22:00N 33°35' W 118°23'6 8.6
2017-Oct-10 21:20N 33°30' W 118°27'3 8.6
2017-Oct-10 21:00N 33°28' W 118°29'1 1.5
2017-Oct-10 20:30N 33°27' W 118°29'1 2.2
2017-Oct-10 20:00N 33°28' W 118°30'2 4.0
2017-Oct-10 19:30N 33°30' W 118°30'1 1.0
2017-Oct-10 19:00N 33°30' W 118°30'1 2.5
2017-Oct-10 18:30N 33°29' W 118°29'1 2.7
2017-Oct-10 18:00N 33°28' W 118°28'1 2.6
2017-Oct-10 17:30N 33°27' W 118°29'5 9.7
2017-Oct-10 17:00N 33°30' W 118°25'5 9.7
2017-Oct-10 16:30N 33°34' W 118°22'5 9.8
2017-Oct-10 16:00N 33°38' W 118°19'5 9.5
2017-Oct-10 15:30N 33°42' W 118°15'  
Track history (hours):
 
Tides and Currents Weather Stations Pressure Air Temp Water Temp Dewpoint Dewpoint Depression Visibility Wind Speed Wind Dir Waves Ship Positions

Oceanographic research ship Yellowfin (USA)

Detailed information on ship capabilities available from University of Delaware's Ocean Information Center.

Owner: CALIFORNIA STATE UNIVERSITY, TERMINAL ISLAND, CA. More information available from US FCC via Universal Licensing System and Coast Guard Vessel Documentation Center.

Last reported at 2017-Oct-19 03:12 UTC. Time now 2017-Oct-19 16:33 UTC.
Position N 33°34' W 118°24'.

; draft 2.5 m.

Type: Other ship. MMSI: 367000160.

Date/timePositionNaut miles runAvg speedWind from/ knotsBaromVisibWave heightAir tempDewpointWater temp
2017-Oct-19 03:12N 33°34' W 118°24'0 1.3
2017-Oct-19 02:57N 33°34' W 118°25'1 1.1
2017-Oct-19 02:29N 33°34' W 118°25'1 1.5
2017-Oct-19 02:00N 33°35' W 118°26'1 1.7
2017-Oct-19 01:30N 33°35' W 118°27'1 2.5
2017-Oct-19 01:00N 33°36' W 118°27'5 8.9
2017-Oct-19 00:30N 33°39' W 118°22'4 8.8
2017-Oct-19 00:00N 33°41' W 118°18'3 6.5
2017-Oct-18 23:30N 33°44' W 118°16'  
2017-Oct-15 18:49N 33°44' W 118°16'1 4.6
2017-Oct-15 18:30N 33°44' W 118°14'1 1.9
2017-Oct-15 18:01N 33°44' W 118°13'2 4.2
2017-Oct-15 17:31N 33°45' W 118°11'4 7.0
2017-Oct-15 16:55N 33°41' W 118°12'1 2.8
2017-Oct-15 16:30N 33°40' W 118°13'3 5.0
2017-Oct-15 15:57N 33°40' W 118°17'2 4.2
2017-Oct-15 15:27N 33°42' W 118°16'2 3.8
2017-Oct-15 14:58N 33°43' W 118°16'0 0.0
2017-Oct-13 22:20N 33°44' W 118°16'2 5.2
2017-Oct-13 21:59N 33°44' W 118°14'0 0.6
2017-Oct-13 21:30N 33°44' W 118°14'1 1.2
2017-Oct-13 21:00N 33°43' W 118°14'2 0.1
2017-Oct-12 18:37N 33°44' W 118°16'0 0.0
2017-Oct-12 18:29N 33°44' W 118°16'0 0.0
2017-Oct-12 18:00N 33°44' W 118°16'0 0.1
2017-Oct-12 17:30N 33°44' W 118°16'0 0.0
2017-Oct-12 17:00N 33°44' W 118°16'1 1.8
2017-Oct-12 16:29N 33°43' W 118°16'2 3.7
2017-Oct-12 15:59N 33°45' W 118°16'1 1.7
2017-Oct-12 15:24N 33°46' W 118°16'0 0.1
2017-Oct-12 14:54N 33°46' W 118°16'3 0.2
2017-Oct-11 22:28N 33°43' W 118°15'4 8.8
2017-Oct-11 21:59N 33°39' W 118°17'5 9.0
2017-Oct-11 21:28N 33°35' W 118°20'3 7.5
2017-Oct-11 21:00N 33°32' W 118°23'0 0.7
2017-Oct-11 20:30N 33°32' W 118°23'0 0.7
2017-Oct-11 19:59N 33°33' W 118°23'0 0.8
2017-Oct-11 19:30N 33°33' W 118°24'0 0.5
2017-Oct-11 19:00N 33°33' W 118°23'0 0.3
2017-Oct-11 18:30N 33°33' W 118°24'0 0.6
2017-Oct-11 18:00N 33°33' W 118°24'1 1.2
2017-Oct-11 17:14N 33°33' W 118°23'0 0.8
2017-Oct-11 16:40N 33°33' W 118°23'12 0.7
2017-Oct-10 23:14N 33°43' W 118°16'2 7.9
2017-Oct-10 23:01N 33°42' W 118°16'5 9.3
2017-Oct-10 22:30N 33°38' W 118°19'5 9.0
2017-Oct-10 22:00N 33°35' W 118°23'6 8.6
2017-Oct-10 21:20N 33°30' W 118°27'3 8.6
2017-Oct-10 21:00N 33°28' W 118°29'1 1.5
2017-Oct-10 20:30N 33°27' W 118°29'1 2.2
2017-Oct-10 20:00N 33°28' W 118°30'2 4.0
2017-Oct-10 19:30N 33°30' W 118°30'1 1.0
2017-Oct-10 19:00N 33°30' W 118°30'1 2.5
2017-Oct-10 18:30N 33°29' W 118°29'1 2.7
2017-Oct-10 18:00N 33°28' W 118°28'1 2.6
2017-Oct-10 17:30N 33°27' W 118°29'5 9.7
2017-Oct-10 17:00N 33°30' W 118°25'5 9.7
2017-Oct-10 16:30N 33°34' W 118°22'5 9.8
2017-Oct-10 16:00N 33°38' W 118°19'5 9.5
2017-Oct-10 15:30N 33°42' W 118°15'  

Dump ship's entire track history